createdAt,value
2019-02-17T00:00:06.253Z,7.48
2019-02-17T00:03:13.589Z,7.48
2019-02-17T00:06:19.352Z,7.36
2019-02-17T00:09:25.118Z,7.35
2019-02-17T00:12:30.896Z,7.20
2019-02-17T00:15:36.688Z,7.10
2019-02-17T00:18:42.494Z,7.11
2019-02-17T00:21:48.282Z,7.26
2019-02-17T00:24:54.137Z,7.21
2019-02-17T00:27:59.906Z,7.18
2019-02-17T00:31:05.784Z,7.11
2019-02-17T00:34:13.670Z,7.16
2019-02-17T00:37:19.062Z,7.04
2019-02-17T00:40:24.850Z,7.03
2019-02-17T00:43:30.632Z,6.80
2019-02-17T00:46:36.419Z,6.85
2019-02-17T00:49:42.226Z,6.91
2019-02-17T00:52:47.978Z,6.70
2019-02-17T00:55:53.752Z,6.64
2019-02-17T00:59:09.358Z,6.88
2019-02-17T01:02:07.047Z,6.89
2019-02-17T01:05:12.966Z,6.85
2019-02-17T01:08:18.727Z,6.87
2019-02-17T01:11:24.527Z,6.66
2019-02-17T01:14:30.385Z,6.85
2019-02-17T01:17:36.408Z,6.75
2019-02-17T01:20:42.293Z,6.69
2019-02-17T01:23:48.062Z,6.73
2019-02-17T01:26:53.837Z,6.75
2019-02-17T01:29:59.617Z,5.93
2019-02-17T01:33:05.442Z,6.34
2019-02-17T01:36:11.231Z,6.49
2019-02-17T01:39:16.992Z,6.67
2019-02-17T01:42:22.870Z,6.70
2019-02-17T01:45:28.703Z,6.74
2019-02-17T01:48:34.467Z,6.75
2019-02-17T01:51:40.272Z,6.67
2019-02-17T01:54:46.041Z,6.56
2019-02-17T01:57:51.822Z,6.55
2019-02-17T02:00:57.886Z,6.57
2019-02-17T02:04:03.985Z,6.68
2019-02-17T02:07:09.781Z,6.69
2019-02-17T02:10:15.635Z,6.04
2019-02-17T02:13:21.429Z,5.99
2019-02-17T02:16:27.207Z,6.20
2019-02-17T02:19:32.981Z,6.51
2019-02-17T02:22:38.863Z,6.48
2019-02-17T02:25:44.688Z,6.66
2019-02-17T02:28:50.501Z,6.40
2019-02-17T02:31:56.272Z,6.50
2019-02-17T02:35:02.077Z,6.70
2019-02-17T02:38:07.963Z,6.33
2019-02-17T02:41:13.735Z,6.67
2019-02-17T02:44:19.529Z,6.66
2019-02-17T02:47:25.317Z,6.65
2019-02-17T02:50:31.145Z,6.67
2019-02-17T02:53:36.903Z,6.74
2019-02-17T02:56:42.721Z,6.46
2019-02-17T02:59:52.311Z,5.72
2019-02-17T03:02:56.064Z,5.68
2019-02-17T03:06:20.704Z,5.39
2019-02-17T03:09:26.559Z,5.72
2019-02-17T03:12:32.388Z,5.87
2019-02-17T03:15:38.105Z,6.01
2019-02-17T03:18:43.915Z,6.09
2019-02-17T03:21:49.690Z,6.33
2019-02-17T03:24:56.559Z,6.40
2019-02-17T03:28:02.314Z,6.24
2019-02-17T03:31:08.136Z,6.28
2019-02-17T03:34:13.928Z,6.08
2019-02-17T03:37:19.809Z,5.60
2019-02-17T03:40:25.580Z,5.82
2019-02-17T03:43:31.403Z,5.99
2019-02-17T03:46:37.189Z,5.74
2019-02-17T03:49:42.987Z,6.07
2019-02-17T03:52:48.737Z,6.17
2019-02-17T03:55:54.568Z,6.16
2019-02-17T03:59:00.352Z,5.94
2019-02-17T04:02:06.243Z,5.95
2019-02-17T04:05:12.018Z,5.47
2019-02-17T04:08:18.061Z,5.67
2019-02-17T04:11:23.841Z,5.40
2019-02-17T04:14:29.739Z,5.28
2019-02-17T04:17:35.506Z,5.65
2019-02-17T04:20:41.293Z,5.18
2019-02-17T04:23:48.073Z,4.72
2019-02-17T04:26:53.897Z,5.38
2019-02-17T04:29:59.662Z,5.16
2019-02-17T04:33:05.486Z,5.28
2019-02-17T04:36:11.276Z,5.36
2019-02-17T04:39:17.074Z,5.29
2019-02-17T04:42:22.825Z,5.63
2019-02-17T04:45:28.726Z,5.38
2019-02-17T04:48:34.476Z,5.01
2019-02-17T04:51:40.377Z,5.00
2019-02-17T04:54:46.294Z,5.15
2019-02-17T04:57:52.053Z,5.24
2019-02-17T05:00:57.827Z,5.43
2019-02-17T05:04:03.817Z,5.60
2019-02-17T05:07:09.594Z,5.87
2019-02-17T05:10:15.414Z,5.88
2019-02-17T05:13:21.205Z,5.82
2019-02-17T05:16:27.025Z,5.80
2019-02-17T05:19:32.908Z,5.99
2019-02-17T05:22:39.548Z,5.68
2019-02-17T05:25:45.457Z,6.00
2019-02-17T05:28:51.244Z,5.69
2019-02-17T05:31:57.179Z,5.42
2019-02-17T05:35:02.948Z,4.96
2019-02-17T05:38:09.845Z,5.37
2019-02-17T05:41:15.659Z,5.74
2019-02-17T05:44:21.472Z,5.72
2019-02-17T05:47:27.293Z,6.06
2019-02-17T05:50:33.038Z,6.19
2019-02-17T05:53:38.861Z,6.26
2019-02-17T05:56:44.629Z,6.29
2019-02-17T05:59:50.505Z,6.37
2019-02-17T06:02:56.276Z,6.35
2019-02-17T06:06:02.074Z,6.53
2019-02-17T06:09:07.877Z,6.46
2019-02-17T06:12:13.709Z,6.43
2019-02-17T06:15:19.590Z,6.58
2019-02-17T06:18:25.366Z,6.78
2019-02-17T06:21:31.109Z,6.93
2019-02-17T06:24:36.910Z,7.16
2019-02-17T06:27:42.713Z,7.29
2019-02-17T06:30:48.493Z,7.59
2019-02-17T06:33:54.279Z,7.77
2019-02-17T06:37:00.080Z,7.84
2019-02-17T06:40:06.206Z,7.98
2019-02-17T06:43:12.021Z,8.23
2019-02-17T06:46:21.734Z,8.26
2019-02-17T06:49:27.556Z,8.45
2019-02-17T06:52:33.369Z,8.48
2019-02-17T06:55:53.492Z,8.79
2019-02-17T06:58:59.304Z,9.13
2019-02-17T07:02:05.255Z,8.46
2019-02-17T07:05:35.789Z,8.86
2019-02-17T07:08:41.742Z,9.11
2019-02-17T07:11:47.575Z,9.06
2019-02-17T07:14:53.426Z,9.21
2019-02-17T07:17:59.348Z,9.55
2019-02-17T07:21:05.388Z,9.97
2019-02-17T07:24:11.198Z,10.19
2019-02-17T07:27:16.965Z,10.32
2019-02-17T07:30:22.750Z,10.51
2019-02-17T07:33:28.584Z,10.80
2019-02-17T07:36:34.387Z,10.98
2019-02-17T07:39:40.223Z,10.94
2019-02-17T07:42:46.022Z,11.40
2019-02-17T07:45:54.263Z,11.54
2019-02-17T07:49:00.046Z,12.18
2019-02-17T07:52:05.931Z,12.26
2019-02-17T07:55:11.921Z,12.21
2019-02-17T07:58:17.684Z,12.52
2019-02-17T08:01:23.517Z,11.15
2019-02-17T08:04:29.300Z,12.07
2019-02-17T08:07:35.158Z,12.51
2019-02-17T08:10:40.996Z,13.03
2019-02-17T08:13:46.829Z,13.15
2019-02-17T08:16:52.607Z,12.89
2019-02-17T08:19:58.371Z,12.97
2019-02-17T08:23:04.188Z,13.28
2019-02-17T08:26:09.992Z,13.71
2019-02-17T08:29:15.967Z,13.70
2019-02-17T08:32:21.746Z,14.11
2019-02-17T08:35:27.677Z,14.40
2019-02-17T08:38:36.352Z,14.27
2019-02-17T08:41:42.288Z,14.44
2019-02-17T08:44:49.292Z,14.76
2019-02-17T08:47:55.150Z,14.76
2019-02-17T08:51:00.930Z,14.84
2019-02-17T08:54:06.711Z,15.05
2019-02-17T08:57:12.502Z,15.36
2019-02-17T09:00:18.355Z,15.44
2019-02-17T09:03:24.134Z,15.45
2019-02-17T09:06:29.945Z,15.64
2019-02-17T09:09:35.754Z,15.87
2019-02-17T09:12:41.552Z,15.81
2019-02-17T09:15:47.368Z,15.28
2019-02-17T09:18:53.238Z,15.92
2019-02-17T09:21:59.048Z,16.14
2019-02-17T09:25:05.635Z,16.28
2019-02-17T09:28:11.478Z,16.49
2019-02-17T09:31:17.344Z,16.62
2019-02-17T09:34:23.251Z,16.50
2019-02-17T09:37:29.089Z,16.49
2019-02-17T09:40:34.851Z,16.70
2019-02-17T09:43:40.641Z,17.01
2019-02-17T09:46:46.432Z,17.22
2019-02-17T09:49:52.274Z,16.95
2019-02-17T09:52:58.069Z,17.33
2019-02-17T09:56:04.094Z,17.00
2019-02-17T09:59:09.886Z,16.94
2019-02-17T10:02:15.695Z,17.22
2019-02-17T10:05:21.477Z,17.64
2019-02-17T10:08:28.295Z,17.28
2019-02-17T10:11:34.226Z,16.90
2019-02-17T10:14:40.034Z,16.47
2019-02-17T10:17:45.875Z,16.93
2019-02-17T10:20:51.876Z,17.40
2019-02-17T10:23:57.992Z,17.53
2019-02-17T10:27:04.042Z,17.55
2019-02-17T10:30:11.797Z,17.96
2019-02-17T10:33:17.765Z,18.27
2019-02-17T10:36:23.562Z,18.62
2019-02-17T10:39:29.502Z,17.92
2019-02-17T10:42:35.289Z,18.54
2019-02-17T10:45:42.085Z,18.83
2019-02-17T10:48:47.918Z,19.05
2019-02-17T10:51:53.762Z,19.05
2019-02-17T10:54:59.528Z,19.28
2019-02-17T10:58:05.413Z,18.14
2019-02-17T11:01:11.312Z,18.14
2019-02-17T11:04:17.100Z,18.45
2019-02-17T11:07:22.903Z,18.76
2019-02-17T11:10:28.701Z,18.53
2019-02-17T11:13:34.547Z,18.82
2019-02-17T11:16:40.483Z,19.10
2019-02-17T11:19:46.313Z,19.42
2019-02-17T11:22:52.158Z,19.55
2019-02-17T11:25:57.946Z,19.63
2019-02-17T11:29:04.979Z,19.27
2019-02-17T11:32:10.911Z,19.27
2019-02-17T11:35:17.055Z,19.70
2019-02-17T11:38:22.837Z,19.79
2019-02-17T11:41:28.768Z,19.27
2019-02-17T11:44:34.580Z,19.52
2019-02-17T11:47:40.374Z,19.68
2019-02-17T11:50:46.143Z,19.84
2019-02-17T11:53:51.995Z,19.84
2019-02-17T11:56:57.899Z,19.58
2019-02-17T12:00:03.823Z,19.87
2019-02-17T12:03:09.891Z,19.56
2019-02-17T12:06:15.772Z,20.14
2019-02-17T12:09:21.601Z,20.12
2019-02-17T12:12:27.447Z,20.34
2019-02-17T12:15:33.255Z,20.55
2019-02-17T12:18:41.453Z,20.42
2019-02-17T12:22:11.938Z,20.50
2019-02-17T12:25:24.730Z,20.18
2019-02-17T12:29:01.454Z,19.75
2019-02-17T12:32:07.569Z,19.77
2019-02-17T12:35:14.609Z,19.82
2019-02-17T12:38:20.528Z,19.52
2019-02-17T12:41:26.294Z,19.51
2019-02-17T12:44:32.069Z,19.12
2019-02-17T12:47:38.134Z,19.76
2019-02-17T12:50:43.988Z,20.08
2019-02-17T12:53:49.774Z,19.45
2019-02-17T12:56:55.528Z,19.18
2019-02-17T13:00:01.438Z,19.37
2019-02-17T13:03:07.675Z,19.77
2019-02-17T13:06:16.045Z,19.77
2019-02-17T13:09:21.869Z,19.65
2019-02-17T13:12:27.634Z,19.21
2019-02-17T13:15:33.702Z,19.44
2019-02-17T13:18:42.542Z,19.69
2019-02-17T13:21:50.095Z,19.80
2019-02-17T13:24:55.855Z,19.90
2019-02-17T13:28:01.810Z,19.87
2019-02-17T13:31:07.669Z,19.52
2019-02-17T13:34:13.450Z,19.44
2019-02-17T13:37:19.469Z,19.37
2019-02-17T13:40:25.380Z,19.07
2019-02-17T13:43:31.108Z,18.97
2019-02-17T13:46:36.915Z,19.18
2019-02-17T13:49:42.809Z,18.89
2019-02-17T13:52:48.597Z,18.88
2019-02-17T13:55:54.478Z,19.12
2019-02-17T13:59:00.231Z,19.25
2019-02-17T14:02:06.443Z,18.80
2019-02-17T14:05:15.705Z,19.09
2019-02-17T14:08:21.497Z,19.05
2019-02-17T14:11:27.532Z,19.07
2019-02-17T14:14:33.358Z,18.42
2019-02-17T14:17:39.228Z,18.42
2019-02-17T14:20:45.015Z,18.39
2019-02-17T14:23:50.883Z,18.39
2019-02-17T14:26:58.386Z,18.57
2019-02-17T14:30:09.042Z,18.69
2019-02-17T14:33:14.436Z,18.69
2019-02-17T14:36:20.425Z,18.60
2019-02-17T14:39:29.264Z,18.49
2019-02-17T14:42:35.157Z,18.38
2019-02-17T14:45:40.953Z,18.24
2019-02-17T14:48:46.770Z,18.15
2019-02-17T14:51:52.610Z,18.22
2019-02-17T14:54:58.439Z,18.00
2019-02-17T14:58:05.626Z,18.00
2019-02-17T15:01:11.649Z,17.98
2019-02-17T15:04:17.754Z,17.96
2019-02-17T15:07:23.618Z,17.93
2019-02-17T15:10:29.674Z,17.78
2019-02-17T15:13:35.632Z,17.61
2019-02-17T15:16:42.316Z,17.46
2019-02-17T15:19:48.264Z,17.12
2019-02-17T15:22:54.097Z,17.17
2019-02-17T15:26:03.106Z,17.08
2019-02-17T15:29:10.162Z,16.90
2019-02-17T15:32:17.886Z,16.88
2019-02-17T15:35:24.515Z,16.62
2019-02-17T15:38:31.057Z,16.51
2019-02-17T15:41:37.427Z,16.38
2019-02-17T15:44:43.223Z,16.33
2019-02-17T15:47:49.120Z,16.21
2019-02-17T15:51:05.938Z,16.06
2019-02-17T15:54:02.587Z,15.94
2019-02-17T15:57:08.722Z,15.79
2019-02-17T16:00:15.020Z,15.66
2019-02-17T16:03:20.993Z,15.69
2019-02-17T16:06:26.832Z,15.55
2019-02-17T16:09:35.931Z,15.43
2019-02-17T16:12:43.178Z,15.15
2019-02-17T16:15:49.010Z,15.26
2019-02-17T16:18:57.483Z,15.27
2019-02-17T16:22:04.986Z,15.15
2019-02-17T16:25:17.064Z,15.17
2019-02-17T16:28:22.903Z,15.14
2019-02-17T16:31:28.718Z,14.96
2019-02-17T16:34:38.417Z,14.94
2019-02-17T16:37:42.493Z,14.86
2019-02-17T16:40:48.411Z,14.62
2019-02-17T16:43:54.344Z,14.64
2019-02-17T16:47:00.287Z,14.64
2019-02-17T16:50:07.809Z,14.72
2019-02-17T16:53:13.623Z,14.67
2019-02-17T16:56:20.813Z,14.69
2019-02-17T16:59:26.721Z,14.64
2019-02-17T17:02:32.705Z,14.64
2019-02-17T17:05:39.746Z,14.42
2019-02-17T17:08:45.868Z,14.33
2019-02-17T17:11:51.939Z,14.33
2019-02-17T17:14:57.939Z,14.42
2019-02-17T17:18:04.026Z,14.15
2019-02-17T17:21:09.841Z,14.15
2019-02-17T17:24:15.976Z,14.19
2019-02-17T17:27:21.940Z,14.18
2019-02-17T17:30:27.781Z,14.15
2019-02-17T17:33:33.583Z,14.02
2019-02-17T17:36:41.389Z,13.87
2019-02-17T17:39:47.190Z,13.91
2019-02-17T17:42:55.762Z,13.90
2019-02-17T17:46:01.696Z,13.89
2019-02-17T17:49:07.751Z,13.68
2019-02-17T17:52:13.615Z,13.73
2019-02-17T17:55:19.449Z,13.78
2019-02-17T17:58:25.276Z,13.69
2019-02-17T18:01:31.545Z,13.60
2019-02-17T18:04:37.459Z,13.49
2019-02-17T18:07:43.468Z,13.39
2019-02-17T18:10:49.352Z,13.36
2019-02-17T18:13:55.286Z,13.26
2019-02-17T18:17:01.071Z,13.19
2019-02-17T18:20:07.993Z,13.32
2019-02-17T18:23:16.127Z,13.42
2019-02-17T18:26:25.562Z,13.50
2019-02-17T18:29:32.714Z,13.42
2019-02-17T18:32:39.346Z,13.31
2019-02-17T18:35:46.944Z,13.29
2019-02-17T18:38:54.280Z,13.24
2019-02-17T18:42:00.139Z,13.05
2019-02-17T18:45:06.236Z,13.11
2019-02-17T18:48:12.032Z,13.04
2019-02-17T18:51:17.940Z,13.14
2019-02-17T18:54:23.937Z,13.07
2019-02-17T18:57:29.778Z,12.99
2019-02-17T19:00:35.732Z,12.99
2019-02-17T19:03:41.702Z,13.04
2019-02-17T19:06:47.998Z,12.96
2019-02-17T19:09:53.906Z,12.87
2019-02-17T19:12:59.831Z,12.80
2019-02-17T19:16:05.747Z,12.92
2019-02-17T19:19:11.525Z,12.76
2019-02-17T19:22:17.554Z,12.88
2019-02-17T19:25:23.354Z,12.85
2019-02-17T19:28:29.195Z,12.90
2019-02-17T19:31:35.000Z,12.96
2019-02-17T19:34:41.965Z,12.89
2019-02-17T19:37:47.976Z,13.02
2019-02-17T19:40:53.812Z,13.02
2019-02-17T19:43:59.633Z,12.81
2019-02-17T19:47:05.499Z,12.72
2019-02-17T19:50:12.211Z,12.23
2019-02-17T19:53:17.997Z,12.32
2019-02-17T19:56:26.512Z,12.31
2019-02-17T19:59:32.477Z,12.09
2019-02-17T20:02:56.351Z,11.99
2019-02-17T20:06:03.473Z,11.86
2019-02-17T20:09:18.596Z,11.75
2019-02-17T20:12:24.596Z,11.75
2019-02-17T20:15:34.048Z,11.52
2019-02-17T20:18:40.853Z,11.55
2019-02-17T20:21:46.676Z,11.29
2019-02-17T20:24:52.559Z,11.55
2019-02-17T20:27:58.375Z,11.53
2019-02-17T20:31:06.734Z,11.45
2019-02-17T20:34:14.656Z,11.54
2019-02-17T20:37:21.729Z,11.59
2019-02-17T20:40:27.564Z,11.66
2019-02-17T20:43:33.398Z,11.58
2019-02-17T20:46:39.290Z,11.26
2019-02-17T20:49:45.141Z,11.38
2019-02-17T20:52:51.041Z,11.12
2019-02-17T20:55:56.942Z,11.10
2019-02-17T20:59:02.858Z,11.13
2019-02-17T21:02:09.231Z,11.06
2019-02-17T21:05:15.205Z,11.04
2019-02-17T21:08:20.990Z,10.97
2019-02-17T21:11:26.819Z,11.07
2019-02-17T21:14:32.768Z,10.24
2019-02-17T21:17:39.910Z,10.05
2019-02-17T21:20:45.993Z,10.64
2019-02-17T21:23:51.777Z,10.74
2019-02-17T21:26:57.604Z,10.41
2019-02-17T21:30:03.776Z,10.68
2019-02-17T21:33:11.098Z,10.32
2019-02-17T21:36:23.140Z,10.37
2019-02-17T21:39:24.374Z,10.34
2019-02-17T21:42:30.163Z,10.31
2019-02-17T21:45:36.124Z,10.25
2019-02-17T21:48:42.034Z,10.27
2019-02-17T21:51:47.982Z,9.97
2019-02-17T21:54:53.734Z,10.28
2019-02-17T21:57:59.518Z,10.28
2019-02-17T22:01:05.403Z,10.33
2019-02-17T22:04:11.183Z,10.25
2019-02-17T22:07:16.939Z,10.44
2019-02-17T22:10:22.706Z,10.23
2019-02-17T22:13:28.487Z,10.49
2019-02-17T22:16:34.337Z,10.35
2019-02-17T22:19:40.124Z,10.40
2019-02-17T22:22:46.009Z,10.56
2019-02-17T22:25:51.852Z,10.48
2019-02-17T22:28:57.636Z,10.43
2019-02-17T22:32:03.462Z,10.43
2019-02-17T22:35:09.580Z,10.71
2019-02-17T22:38:15.390Z,10.67
2019-02-17T22:41:21.385Z,10.53
2019-02-17T22:44:27.152Z,10.65
2019-02-17T22:47:32.987Z,10.72
2019-02-17T22:50:38.789Z,10.41
2019-02-17T22:53:44.595Z,10.49
2019-02-17T22:56:50.366Z,10.39
2019-02-17T22:59:56.192Z,10.50
2019-02-17T23:03:01.970Z,10.39
2019-02-17T23:06:07.947Z,10.16
2019-02-17T23:09:14.111Z,10.04
2019-02-17T23:12:20.475Z,9.83
2019-02-17T23:15:26.245Z,9.78
2019-02-17T23:18:32.143Z,9.89
2019-02-17T23:21:37.924Z,10.01
2019-02-17T23:24:43.814Z,9.49
2019-02-17T23:27:49.729Z,9.71
2019-02-17T23:30:55.511Z,9.49
2019-02-17T23:34:01.276Z,9.68
2019-02-17T23:37:07.057Z,9.59
2019-02-17T23:40:13.145Z,9.46
2019-02-17T23:43:19.996Z,9.75
2019-02-17T23:46:25.777Z,9.94
2019-02-17T23:49:32.566Z,9.48
2019-02-17T23:52:38.357Z,9.34
2019-02-17T23:55:44.127Z,9.56
2019-02-17T23:58:49.922Z,9.42
